| time (UTC) | temp F | wind direction | speed knots | gust knots | rain 1hr in | rain 24hr in | rain mn in | humidity % | barometer mb |
| 20260507141515 | 54 | 160 | 3.5 | 5.2 | 0.00 | 0.00 | 0.00 | 65 | 1014.0 |
| 20260507141012 | 54 | 355 | 2.6 | 5.2 | 0.00 | 0.00 | 0.00 | 67 | 1014.1 |
| 20260507140508 | 54 | 13 | 1.7 | 2.6 | 0.00 | 0.00 | 0.00 | 66 | 1014.2 |
| 20260507140006 | 53 | 38 | 0.9 | 1.7 | 0.00 | 0.00 | 0.00 | 68 | 1014.3 |
| 20260507135502 | 53 | 82 | 0.9 | 0.9 | 0.00 | 0.00 | 0.00 | 68 | 1014.3 |
| 20260507134959 | 53 | 62 | 0.0 | 0.9 | 0.00 | 0.00 | 0.00 | 69 | 1014.3 |
| 20260507134455 | 52 | 44 | 0.0 | 0.9 | 0.00 | 0.00 | 0.00 | 70 | 1014.2 |
| 20260507133946 | 52 | 20 | 0.9 | 2.6 | 0.00 | 0.00 | 0.00 | 71 | 1014.2 |
| 20260507133442 | 51 | 215 | 2.6 | 4.3 | 0.00 | 0.00 | 0.00 | 71 | 1014.5 |
| 20260507132936 | 51 | 17 | 1.7 | 2.6 | 0.00 | 0.00 | 0.00 | 73 | 1014.6 |
| 20260507132431 | 51 | 98 | 0.9 | 1.7 | 0.00 | 0.00 | 0.00 | 73 | 1014.5 |
| 20260507131928 | 51 | 333 | 0.9 | 1.7 | 0.00 | 0.00 | 0.00 | 75 | 1014.3 |
| 20260507131425 | 50 | 87 | 1.7 | 1.7 | 0.00 | 0.00 | 0.00 | 76 | 1014.4 |
| 20260507130922 | 50 | 224 | 4.3 | 5.2 | 0.00 | 0.00 | 0.00 | 76 | 1014.4 |
| 20260507130419 | 49 | 69 | 1.7 | 1.7 | 0.00 | 0.00 | 0.00 | 77 | 1014.8 |
| 20260507125918 | 49 | 40 | 0.9 | 0.9 | 0.00 | 0.00 | 0.00 | 78 | 1014.5 |
| 20260507125415 | 48 | 35 | 0.0 | 0.9 | 0.00 | 0.00 | 0.00 | 79 | 1014.5 |
| 20260507124913 | 48 | 77 | 1.7 | 4.3 | 0.00 | 0.00 | 0.00 | 79 | 1014.4 |
| 20260507124408 | 48 | 53 | 0.9 | 0.9 | 0.00 | 0.00 | 0.00 | 80 | 1014.5 |
| 20260507123907 | 47 | 18 | 2.6 | 2.6 | 0.00 | 0.00 | 0.00 | 80 | 1014.4 |
| 20260507123404 | 47 | 135 | 1.7 | 4.3 | 0.00 | 0.00 | 0.00 | 81 | 1014.6 |
| 20260507122900 | 47 | 357 | 0.9 | 1.7 | 0.00 | 0.00 | 0.00 | 81 | 1014.5 |
| 20260507122355 | 47 | 60 | 0.9 | 2.6 | 0.00 | 0.00 | 0.00 | 82 | 1014.6 |
| 20260507121852 | 46 | 88 | 1.7 | 2.6 | 0.00 | 0.00 | 0.00 | 82 | 1014.4 |
| 20260507121347 | 46 | 327 | 1.7 | 1.7 | 0.00 | 0.00 | 0.00 | 82 | 1014.5 |
| 20260507120844 | 46 | 43 | 0.9 | 0.9 | 0.00 | 0.00 | 0.00 | 82 | 1014.4 |
| 20260507120340 | 46 | 20 | 0.9 | 1.7 | 0.00 | 0.00 | 0.00 | 83 | 1014.3 |
| 20260507115837 | 46 | 37 | 1.7 | 2.6 | 0.00 | 0.00 | 0.00 | 83 | 1014.4 |
| 20260507115333 | 46 | 48 | 2.6 | 4.3 | 0.00 | 0.00 | 0.00 | 83 | 1014.2 |
| 20260507114828 | 46 | 114 | 0.9 | 0.9 | 0.00 | 0.00 | 0.00 | 83 | 1014.5 |
| 20260507114326 | 46 | 41 | 0.0 | 0.0 | 0.00 | 0.00 | 0.00 | 83 | 1014.6 |
| 20260507113823 | 46 | 117 | 0.9 | 0.9 | 0.00 | 0.00 | 0.00 | 83 | 1014.6 |
| 20260507113320 | 46 | 62 | 0.9 | 1.7 | 0.00 | 0.00 | 0.00 | 83 | 1014.5 |
| 20260507112817 | 46 | 37 | 0.9 | 0.9 | 0.00 | 0.00 | 0.00 | 82 | 1014.5 |
| 20260507112314 | 46 | 26 | 0.9 | 0.9 | 0.00 | 0.00 | 0.00 | 83 | 1014.5 |
| 20260507111812 | 46 | 48 | 0.0 | 0.9 | 0.00 | 0.00 | 0.00 | 82 | 1014.4 |
| 20260507111308 | 46 | 69 | 0.0 | 0.9 | 0.00 | 0.00 | 0.00 | 82 | 1014.3 |
| 20260507110804 | 46 | 124 | 1.7 | 1.7 | 0.00 | 0.00 | 0.00 | 82 | 1014.2 |
| 20260507110301 | 46 | 178 | 3.5 | 6.1 | 0.00 | 0.00 | 0.00 | 81 | 1014.4 |
| 20260507105758 | 46 | 190 | 1.7 | 1.7 | 0.00 | 0.00 | 0.00 | 81 | 1014.3 |
| 20260507105254 | 46 | 196 | 2.6 | 2.6 | 0.00 | 0.00 | 0.00 | 81 | 1014.3 |
| 20260507104751 | 46 | 22 | 0.0 | 0.9 | 0.00 | 0.00 | 0.00 | 81 | 1014.4 |
| 20260507104248 | 46 | 172 | 1.7 | 2.6 | 0.00 | 0.00 | 0.00 | 80 | 1014.3 |
| 20260507103744 | 46 | 87 | 0.9 | 1.7 | 0.00 | 0.00 | 0.00 | 81 | 1014.5 |
| 20260507103240 | 46 | 48 | 1.7 | 1.7 | 0.00 | 0.00 | 0.00 | 80 | 1014.4 |
| 20260507102736 | 46 | 180 | 2.6 | 4.3 | 0.00 | 0.00 | 0.00 | 80 | 1014.4 |
| 20260507102233 | 46 | 14 | 1.7 | 1.7 | 0.00 | 0.00 | 0.00 | 80 | 1014.4 |
| 20260507101729 | 46 | 26 | 0.9 | 1.7 | 0.00 | 0.00 | 0.00 | 80 | 1014.8 |
| 20260507101225 | 46 | 27 | 0.9 | 0.9 | 0.00 | 0.00 | 0.00 | 79 | 1014.9 |
| 20260507100722 | 46 | 59 | 0.9 | 0.9 | 0.00 | 0.00 | 0.00 | 79 | 1014.6 |
| 20260507100220 | 46 | 51 | 0.0 | 0.9 | 0.00 | 0.00 | 0.00 | 79 | 1014.8 |
| 20260507095718 | 46 | 338 | 1.7 | 1.7 | 0.00 | 0.00 | 0.00 | 79 | 1014.8 |
| 20260507095214 | 46 | 86 | 1.7 | 4.3 | 0.00 | 0.00 | 0.00 | 79 | 1014.6 |
| 20260507094711 | 46 | 136 | 1.7 | 2.6 | 0.00 | 0.00 | 0.00 | 78 | 1014.9 |
| 20260507094208 | 46 | 109 | 0.9 | 1.7 | 0.00 | 0.00 | 0.00 | 78 | 1014.8 |
| 20260507093705 | 47 | 42 | 0.9 | 0.9 | 0.00 | 0.00 | 0.00 | 78 | 1015.0 |
| 20260507093204 | 46 | 29 | 0.0 | 0.9 | 0.00 | 0.00 | 0.00 | 78 | 1015.0 |
| 20260507092700 | 47 | 54 | 0.0 | 0.0 | 0.00 | 0.00 | 0.00 | 78 | 1015.1 |
| 20260507092157 | 47 | 64 | 0.0 | 0.9 | 0.00 | 0.00 | 0.00 | 77 | 1015.1 |
| 20260507091653 | 47 | 117 | 1.7 | 1.7 | 0.00 | 0.00 | 0.00 | 77 | 1015.4 |
| 20260507091150 | 47 | 98 | 0.9 | 0.9 | 0.00 | 0.00 | 0.00 | 77 | 1015.1 |
| 20260507090645 | 47 | 41 | 0.9 | 0.9 | 0.00 | 0.00 | 0.00 | 76 | 1015.4 |
| 20260507090143 | 47 | 115 | 0.9 | 0.9 | 0.00 | 0.00 | 0.00 | 76 | 1015.5 |
| 20260507085639 | 47 | 60 | 0.9 | 0.9 | 0.00 | 0.00 | 0.00 | 76 | 1015.5 |
| 20260507085136 | 47 | 35 | 0.0 | 0.9 | 0.00 | 0.00 | 0.00 | 76 | 1015.3 |
| 20260507084633 | 47 | 52 | 0.0 | 0.0 | 0.00 | 0.00 | 0.00 | 76 | 1015.4 |
| 20260507084130 | 47 | 106 | 0.9 | 0.9 | 0.00 | 0.00 | 0.00 | 75 | 1015.2 |
| 20260507083626 | 47 | 72 | 0.0 | 0.0 | 0.00 | 0.00 | 0.00 | 74 | 1015.2 |
| 20260507083123 | 47 | 323 | 2.6 | 2.6 | 0.00 | 0.00 | 0.00 | 74 | 1015.4 |
| 20260507082619 | 48 | 137 | 0.9 | 1.7 | 0.00 | 0.00 | 0.00 | 74 | 1015.5 |
| 20260507082116 | 47 | 49 | 1.7 | 2.6 | 0.00 | 0.00 | 0.00 | 73 | 1015.6 |
| 20260507081612 | 48 | 244 | 1.7 | 1.7 | 0.00 | 0.00 | 0.00 | 73 | 1015.5 |
| 20260507081109 | 47 | 88 | 0.9 | 0.9 | 0.00 | 0.00 | 0.00 | 72 | 1015.6 |
| 20260507080605 | 47 | 62 | 0.0 | 0.0 | 0.00 | 0.00 | 0.00 | 72 | 1015.6 |
| 20260507075556 | 47 | 22 | 0.0 | 0.0 | 0.00 | 0.00 | 0.00 | 72 | 1015.9 |
| 20260507075053 | 47 | 5 | 1.7 | 1.7 | 0.00 | 0.00 | 0.00 | 71 | 1016.1 |
| 20260507074550 | 47 | 119 | 0.9 | 1.7 | 0.00 | 0.00 | 0.00 | 70 | 1016.0 |
| 20260507074049 | 48 | 26 | 0.9 | 0.9 | 0.00 | 0.00 | 0.00 | 70 | 1016.0 |
| 20260507073544 | 48 | 125 | 0.9 | 1.7 | 0.00 | 0.00 | 0.00 | 69 | 1016.1 |
| 20260507073041 | 48 | 118 | 0.9 | 0.9 | 0.00 | 0.00 | 0.00 | 68 | 1016.1 |
| 20260507072539 | 48 | 105 | 0.9 | 0.9 | 0.00 | 0.00 | 0.00 | 69 | 1016.1 |
| 20260507072036 | 48 | 64 | 0.0 | 0.0 | 0.00 | 0.00 | 0.00 | 67 | 1016.3 |
| 20260507071533 | 48 | 59 | 0.9 | 0.9 | 0.00 | 0.00 | 0.00 | 67 | 1016.3 |
| 20260507071030 | 48 | 194 | 1.7 | 2.6 | 0.00 | 0.00 | 0.00 | 66 | 1016.4 |
| 20260507070527 | 49 | 55 | 0.0 | 0.0 | 0.00 | 0.00 | 0.00 | 65 | 1016.5 |
| 20260507070024 | 49 | 69 | 1.7 | 2.6 | 0.00 | 0.00 | 0.00 | 64 | 1016.3 |
| 20260507065520 | 49 | 66 | 0.0 | 0.9 | 0.00 | 0.00 | 0.00 | 64 | 1016.5 |
| 20260507065017 | 49 | 116 | 0.9 | 0.9 | 0.00 | 0.00 | 0.00 | 63 | 1016.5 |
| 20260507064515 | 49 | 192 | 0.9 | 1.7 | 0.00 | 0.00 | 0.00 | 62 | 1016.5 |
| 20260507064014 | 49 | 78 | 0.9 | 0.9 | 0.00 | 0.00 | 0.00 | 62 | 1016.7 |
| 20260507063510 | 50 | 80 | 0.0 | 0.0 | 0.00 | 0.00 | 0.00 | 60 | 1016.5 |
| 20260507063008 | 50 | 77 | 0.0 | 0.9 | 0.00 | 0.00 | 0.00 | 59 | 1016.7 |
| 20260507062504 | 50 | 27 | 0.9 | 1.7 | 0.00 | 0.00 | 0.00 | 58 | 1016.6 |
| 20260507062001 | 50 | 15 | 0.9 | 0.9 | 0.00 | 0.00 | 0.00 | 57 | 1016.8 |
| 20260507061459 | 50 | 99 | 0.9 | 2.6 | 0.00 | 0.00 | 0.00 | 57 | 1016.8 |
| 20260507060957 | 50 | 223 | 0.9 | 0.9 | 0.00 | 0.00 | 0.00 | 55 | 1016.9 |
| 20260507060454 | 50 | 36 | 0.9 | 0.9 | 0.00 | 0.00 | 0.00 | 55 | 1016.9 |
| 20260507055951 | 51 | 138 | 0.9 | 1.7 | 0.00 | 0.00 | 0.00 | 53 | 1017.0 |
| 20260507055446 | 51 | 70 | 0.0 | 0.9 | 0.00 | 0.00 | 0.00 | 54 | 1016.9 |
| 20260507054943 | 50 | 152 | 1.7 | 1.7 | 0.00 | 0.00 | 0.00 | 52 | 1016.9 |
| 20260507054439 | 50 | 88 | 0.9 | 1.7 | 0.00 | 0.00 | 0.00 | 52 | 1016.9 |
| 20260507053936 | 49 | 71 | 0.0 | 0.0 | 0.00 | 0.00 | 0.00 | 54 | 1017.2 |
| 20260507053434 | 48 | 80 | 0.9 | 0.9 | 0.00 | 0.00 | 0.00 | 57 | 1016.9 |
| 20260507052932 | 47 | 107 | 0.9 | 0.9 | 0.00 | 0.00 | 0.00 | 59 | 1017.0 |
| 20260507052429 | 47 | 83 | 0.0 | 0.0 | 0.00 | 0.00 | 0.00 | 60 | 1017.1 |
| 20260507051926 | 46 | 71 | 0.9 | 0.9 | 0.00 | 0.00 | 0.00 | 60 | 1016.9 |
| 20260507051424 | 43 | 77 | 0.0 | 0.0 | 0.00 | 0.00 | 0.00 | 67 | 1017.0 |
| 20260507050921 | 42 | 57 | 0.9 | 0.9 | 0.00 | 0.00 | 0.00 | 74 | 1017.2 |
| 20260507050417 | 41 | 47 | 0.0 | 0.0 | 0.00 | 0.00 | 0.00 | 78 | 1017.0 |
| 20260507045914 | 41 | 47 | 0.0 | 0.0 | 0.00 | 0.00 | 0.00 | 79 | 1017.1 |
| 20260507045411 | 41 | 47 | 0.0 | 0.0 | 0.00 | 0.00 | 0.00 | 80 | 1016.9 |
| 20260507044908 | 41 | 47 | 0.0 | 0.0 | 0.00 | 0.00 | 0.00 | 79 | 1017.1 |
| 20260507044405 | 41 | 47 | 0.0 | 0.0 | 0.00 | 0.00 | 0.00 | 79 | 1017.2 |
| 20260507043901 | 41 | 47 | 0.0 | 0.0 | 0.00 | 0.00 | 0.00 | 79 | 1017.3 |
| 20260507043357 | 41 | 47 | 0.0 | 0.0 | 0.00 | 0.00 | 0.00 | 79 | 1017.3 |
| 20260507042854 | 41 | 47 | 0.0 | 0.0 | 0.00 | 0.00 | 0.00 | 79 | 1017.5 |
| 20260507042350 | 41 | 47 | 0.0 | 0.0 | 0.00 | 0.00 | 0.00 | 78 | 1017.4 |
| 20260507041846 | 42 | 47 | 0.0 | 0.0 | 0.00 | 0.00 | 0.00 | 78 | 1017.3 |
| 20260507041343 | 42 | 47 | 0.0 | 0.0 | 0.00 | 0.00 | 0.00 | 79 | 1017.4 |
| 20260507040840 | 42 | 47 | 0.0 | 0.0 | 0.00 | 0.00 | 0.00 | 78 | 1017.3 |
| 20260507040336 | 42 | 47 | 0.0 | 0.0 | 0.00 | 0.00 | 0.00 | 77 | 1017.5 |
| 20260507035832 | 42 | 47 | 0.0 | 0.0 | 0.00 | 0.00 | 0.00 | 76 | 1017.4 |
| 20260507035328 | 42 | 47 | 0.0 | 0.0 | 0.00 | 0.00 | 0.00 | 75 | 1017.6 |
| 20260507034826 | 42 | 47 | 0.0 | 0.0 | 0.00 | 0.00 | 0.00 | 75 | 1017.6 |
| 20260507034322 | 42 | 47 | 0.0 | 0.0 | 0.00 | 0.00 | 0.00 | 74 | 1017.5 |
| 20260507033821 | 43 | 47 | 0.0 | 0.0 | 0.00 | 0.00 | 0.00 | 74 | 1017.5 |
| 20260507033318 | 43 | 47 | 0.0 | 0.0 | 0.00 | 0.00 | 0.00 | 74 | 1017.5 |
| 20260507032815 | 43 | 47 | 0.0 | 0.0 | 0.00 | 0.00 | 0.00 | 72 | 1017.7 |
| 20260507032311 | 44 | 47 | 0.0 | 0.0 | 0.00 | 0.00 | 0.00 | 70 | 1017.7 |
| 20260507031808 | 44 | 47 | 0.0 | 0.0 | 0.00 | 0.00 | 0.00 | 69 | 1017.7 |
| 20260507031305 | 44 | 47 | 0.0 | 0.0 | 0.00 | 0.00 | 0.00 | 69 | 1017.6 |
| 20260507030801 | 44 | 47 | 0.0 | 0.0 | 0.00 | 0.00 | 0.00 | 68 | 1017.6 |
| 20260507030259 | 45 | 47 | 0.0 | 0.0 | 0.00 | 0.00 | 0.00 | 70 | 1017.5 |
| 20260507025756 | 45 | 47 | 0.0 | 0.0 | 0.00 | 0.00 | 0.00 | 71 | 1017.6 |
| 20260507025253 | 46 | 47 | 0.0 | 0.0 | 0.00 | 0.00 | 0.00 | 70 | 1017.8 |
| 20260507024751 | 46 | 47 | 0.0 | 0.0 | 0.00 | 0.00 | 0.00 | 67 | 1017.6 |
| 20260507024248 | 46 | 47 | 0.0 | 0.0 | 0.00 | 0.00 | 0.00 | 65 | 1017.6 |
| 20260507023743 | 47 | 47 | 0.0 | 0.0 | 0.00 | 0.00 | 0.00 | 63 | 1017.4 |
| 20260507023240 | 47 | 47 | 0.0 | 0.0 | 0.00 | 0.00 | 0.00 | 61 | 1017.5 |
| 20260507022738 | 48 | 47 | 0.0 | 0.0 | 0.00 | 0.00 | 0.00 | 62 | 1017.5 |
| 20260507022233 | 48 | 46 | 0.0 | 0.0 | 0.00 | 0.00 | 0.00 | 64 | 1017.5 |
| 20260507021730 | 49 | 46 | 0.0 | 0.0 | 0.00 | 0.00 | 0.00 | 61 | 1017.4 |
| 20260507021225 | 49 | 46 | 0.0 | 0.0 | 0.00 | 0.00 | 0.00 | 59 | 1017.3 |
| 20260507020724 | 49 | 46 | 0.0 | 0.0 | 0.00 | 0.00 | 0.00 | 58 | 1017.4 |
| 20260507020220 | 50 | 47 | 0.0 | 0.0 | 0.00 | 0.00 | 0.00 | 53 | 1017.4 |
| 20260507015718 | 50 | 46 | 0.0 | 0.0 | 0.00 | 0.00 | 0.00 | 56 | 1017.3 |
| 20260507015215 | 51 | 46 | 0.0 | 0.0 | 0.00 | 0.00 | 0.00 | 57 | 1017.0 |
| 20260507014711 | 52 | 46 | 0.0 | 0.0 | 0.00 | 0.00 | 0.00 | 55 | 1017.1 |
| 20260507014208 | 52 | 47 | 0.0 | 0.0 | 0.00 | 0.00 | 0.00 | 51 | 1017.3 |
| 20260507013705 | 52 | 47 | 0.0 | 0.0 | 0.00 | 0.00 | 0.00 | 49 | 1017.4 |
| 20260507013202 | 53 | 23 | 0.0 | 0.0 | 0.00 | 0.00 | 0.00 | 50 | 1017.2 |
| 20260507012659 | 54 | 23 | 0.0 | 0.0 | 0.00 | 0.00 | 0.00 | 46 | 1017.3 |
| 20260507012155 | 54 | 23 | 0.0 | 0.0 | 0.00 | 0.00 | 0.00 | 43 | 1017.1 |
| 20260507011653 | 55 | 23 | 0.0 | 0.0 | 0.00 | 0.00 | 0.00 | 42 | 1017.2 |
| 20260507011149 | 55 | 23 | 0.0 | 0.0 | 0.00 | 0.00 | 0.00 | 42 | 1017.2 |
| 20260507010643 | 56 | 23 | 0.0 | 0.0 | 0.00 | 0.00 | 0.00 | 38 | 1017.3 |
| 20260507010140 | 56 | 23 | 0.0 | 0.0 | 0.00 | 0.00 | 0.00 | 37 | 1017.2 |
| 20260507005637 | 56 | 23 | 0.0 | 0.0 | 0.00 | 0.00 | 0.00 | 36 | 1017.4 |
| 20260507005133 | 57 | 23 | 0.0 | 0.0 | 0.00 | 0.00 | 0.00 | 40 | 1017.2 |
| 20260507004630 | 58 | 23 | 0.0 | 0.0 | 0.00 | 0.00 | 0.00 | 41 | 1017.4 |
| 20260507004122 | 58 | 23 | 0.0 | 0.0 | 0.00 | 0.00 | 0.00 | 34 | 1017.4 |
| 20260507003618 | 58 | 19 | 0.9 | 0.9 | 0.00 | 0.00 | 0.00 | 33 | 1017.2 |
| 20260507003113 | 58 | 63 | 0.9 | 0.9 | 0.00 | 0.00 | 0.00 | 35 | 1017.4 |
| 20260507002609 | 59 | 18 | 0.0 | 0.0 | 0.00 | 0.00 | 0.00 | 33 | 1017.2 |
| 20260507002105 | 59 | 358 | 0.9 | 1.7 | 0.00 | 0.00 | 0.00 | 30 | 1017.4 |
| 20260507001602 | 59 | 39 | 0.0 | 0.9 | 0.00 | 0.00 | 0.00 | 33 | 1017.3 |
| 20260507001100 | 59 | 44 | 0.9 | 0.9 | 0.00 | 0.00 | 0.00 | 32 | 1017.3 |
| 20260507000556 | 59 | 47 | 0.0 | 0.9 | 0.00 | 0.00 | 0.00 | 32 | 1017.3 |
| 20260507000051 | 59 | 351 | 1.7 | 1.7 | 0.00 | 0.00 | 0.00 | 31 | 1017.5 |
| 20260506235549 | 59 | 29 | 0.9 | 0.9 | 0.00 | 0.00 | 0.00 | 33 | 1017.5 |
| 20260506235044 | 59 | 346 | 2.6 | 2.6 | 0.00 | 0.00 | 0.00 | 29 | 1017.8 |
| 20260506234542 | 59 | 24 | 0.9 | 0.9 | 0.00 | 0.00 | 0.00 | 31 | 1017.7 |
| 20260506234039 | 59 | 314 | 2.6 | 4.3 | 0.00 | 0.00 | 0.00 | 31 | 1017.7 |
| 20260506233536 | 59 | 36 | 0.9 | 0.9 | 0.00 | 0.00 | 0.00 | 31 | 1017.6 |
| 20260506233033 | 60 | 15 | 0.9 | 0.9 | 0.00 | 0.00 | 0.00 | 32 | 1017.8 |
| 20260506232529 | 60 | 1 | 2.6 | 2.6 | 0.00 | 0.00 | 0.00 | 31 | 1017.5 |
| 20260506232024 | 59 | 30 | 1.7 | 1.7 | 0.00 | 0.00 | 0.00 | 33 | 1017.5 |
| 20260506231522 | 59 | 321 | 1.7 | 2.6 | 0.00 | 0.00 | 0.00 | 33 | 1017.6 |
| 20260506231020 | 59 | 49 | 0.9 | 0.9 | 0.00 | 0.00 | 0.00 | 32 | 1017.8 |
| 20260506230516 | 59 | 28 | 1.7 | 1.7 | 0.00 | 0.00 | 0.00 | 32 | 1017.6 |
| 20260506230014 | 60 | 305 | 4.3 | 5.2 | 0.00 | 0.00 | 0.00 | 28 | 1017.7 |
| 20260506225510 | 62 | 345 | 2.6 | 2.6 | 0.00 | 0.00 | 0.00 | 29 | 1017.6 |
| 20260506225007 | 62 | 273 | 3.5 | 4.3 | 0.00 | 0.00 | 0.00 | 27 | 1017.8 |
| 20260506224503 | 61 | 147 | 0.9 | 1.7 | 0.00 | 0.00 | 0.00 | 28 | 1017.8 |
| 20260506224000 | 60 | 288 | 4.3 | 5.2 | 0.00 | 0.00 | 0.00 | 26 | 1017.8 |
| 20260506223456 | 61 | 336 | 2.6 | 2.6 | 0.00 | 0.00 | 0.00 | 29 | 1017.9 |
| 20260506222953 | 63 | 8 | 2.6 | 2.6 | 0.00 | 0.00 | 0.00 | 33 | 1017.7 |
| 20260506222449 | 63 | 22 | 0.9 | 2.6 | 0.00 | 0.00 | 0.00 | 29 | 1018.1 |
| 20260506221946 | 62 | 349 | 4.3 | 4.3 | 0.00 | 0.00 | 0.00 | 29 | 1017.7 |
| 20260506221444 | 59 | 312 | 2.6 | 2.6 | 0.00 | 0.00 | 0.00 | 29 | 1017.9 |
| 20260506220942 | 60 | 28 | 2.6 | 2.6 | 0.00 | 0.00 | 0.00 | 34 | 1018.1 |
| 20260506220437 | 60 | 274 | 5.2 | 7.0 | 0.00 | 0.00 | 0.00 | 28 | 1017.9 |
| 20260506215933 | 62 | 354 | 1.7 | 1.7 | 0.00 | 0.00 | 0.00 | 30 | 1018.1 |
| 20260506215430 | 63 | 321 | 3.5 | 4.3 | 0.00 | 0.00 | 0.00 | 27 | 1018.2 |
| 20260506214926 | 63 | 349 | 3.5 | 5.2 | 0.00 | 0.00 | 0.00 | 32 | 1018.2 |
| 20260506214422 | 63 | 358 | 1.7 | 1.7 | 0.00 | 0.00 | 0.00 | 32 | 1018.2 |
| 20260506213921 | 62 | 302 | 0.9 | 1.7 | 0.00 | 0.00 | 0.00 | 30 | 1018.2 |
| 20260506213418 | 59 | 27 | 1.7 | 2.6 | 0.00 | 0.00 | 0.00 | 32 | 1018.3 |
| 20260506212915 | 62 | 291 | 4.3 | 7.0 | 0.00 | 0.00 | 0.00 | 30 | 1018.3 |
| 20260506212411 | 62 | 3 | 3.5 | 5.2 | 0.00 | 0.00 | 0.00 | 27 | 1018.5 |
| 20260506211906 | 61 | 357 | 0.9 | 1.7 | 0.00 | 0.00 | 0.00 | 30 | 1018.4 |
| 20260506211402 | 63 | 330 | 0.9 | 1.7 | 0.00 | 0.00 | 0.00 | 32 | 1018.4 |
| 20260506210859 | 62 | 303 | 4.3 | 6.1 | 0.00 | 0.00 | 0.00 | 29 | 1018.7 |
| 20260506210356 | 61 | 354 | 3.5 | 6.1 | 0.00 | 0.00 | 0.00 | 32 | 1018.8 |
| 20260506205848 | 63 | 351 | 3.5 | 6.1 | 0.00 | 0.00 | 0.00 | 29 | 1018.5 |
| 20260506205344 | 63 | 335 | 3.5 | 4.3 | 0.00 | 0.00 | 0.00 | 31 | 1018.8 |
| 20260506204840 | 63 | 213 | 1.7 | 1.7 | 0.00 | 0.00 | 0.00 | 32 | 1018.7 |
| 20260506204338 | 62 | 349 | 3.5 | 4.3 | 0.00 | 0.00 | 0.00 | 31 | 1018.8 |
| 20260506203836 | 63 | 357 | 2.6 | 2.6 | 0.00 | 0.00 | 0.00 | 33 | 1019.1 |
| 20260506203333 | 61 | 4 | 2.6 | 4.3 | 0.00 | 0.00 | 0.00 | 31 | 1019.0 |
| 20260506202829 | 62 | 29 | 3.5 | 5.2 | 0.00 | 0.00 | 0.00 | 34 | 1018.8 |
| 20260506202327 | 60 | 299 | 5.2 | 7.8 | 0.00 | 0.00 | 0.00 | 31 | 1019.0 |
| 20260506201823 | 60 | 30 | 0.0 | 0.9 | 0.00 | 0.00 | 0.00 | 33 | 1019.1 |
| 20260506201321 | 61 | 16 | 4.3 | 6.1 | 0.00 | 0.00 | 0.00 | 33 | 1019.0 |
| 20260506200817 | 60 | 332 | 2.6 | 2.6 | 0.00 | 0.00 | 0.00 | 34 | 1019.3 |
| 20260506200313 | 58 | 13 | 3.5 | 4.3 | 0.00 | 0.00 | 0.00 | 36 | 1019.4 |
| 20260506195809 | 58 | 12 | 2.6 | 4.3 | 0.00 | 0.00 | 0.00 | 35 | 1019.4 |
| 20260506195307 | 58 | 353 | 6.1 | 6.1 | 0.00 | 0.00 | 0.00 | 33 | 1019.4 |
| 20260506194804 | 58 | 25 | 4.3 | 6.1 | 0.00 | 0.00 | 0.00 | 34 | 1019.3 |
| 20260506194300 | 60 | 330 | 1.7 | 1.7 | 0.00 | 0.00 | 0.00 | 31 | 1019.4 |
| 20260506193758 | 59 | 74 | 0.0 | 0.0 | 0.00 | 0.00 | 0.00 | 40 | 1019.6 |
| 20260506193254 | 59 | 126 | 0.9 | 0.9 | 0.00 | 0.00 | 0.00 | 34 | 1019.4 |
| 20260506192750 | 60 | 59 | 0.9 | 1.7 | 0.00 | 0.00 | 0.00 | 33 | 1019.5 |
| 20260506192248 | 60 | 359 | 2.6 | 2.6 | 0.00 | 0.00 | 0.00 | 33 | 1019.6 |
| 20260506191744 | 58 | 56 | 1.7 | 4.3 | 0.00 | 0.00 | 0.00 | 34 | 1019.5 |
| 20260506191241 | 58 | 355 | 1.7 | 1.7 | 0.00 | 0.00 | 0.00 | 33 | 1019.6 |
| 20260506190738 | 59 | 338 | 3.5 | 7.8 | 0.00 | 0.00 | 0.00 | 34 | 1019.7 |
| 20260506190234 | 59 | 345 | 3.5 | 4.3 | 0.00 | 0.00 | 0.00 | 33 | 1019.5 |
| 20260506185732 | 60 | 32 | 2.6 | 6.1 | 0.00 | 0.00 | 0.00 | 36 | 1019.5 |
| 20260506185228 | 60 | 51 | 0.0 | 0.9 | 0.00 | 0.00 | 0.00 | 33 | 1019.6 |
| 20260506184725 | 60 | 11 | 2.6 | 2.6 | 0.00 | 0.00 | 0.00 | 36 | 1019.4 |
| 20260506184223 | 58 | 317 | 0.9 | 0.9 | 0.00 | 0.00 | 0.00 | 36 | 1019.6 |
| 20260506183720 | 57 | 346 | 3.5 | 4.3 | 0.00 | 0.00 | 0.00 | 36 | 1019.7 |
| 20260506183215 | 58 | 75 | 2.6 | 4.3 | 0.00 | 0.00 | 0.00 | 35 | 1019.9 |
| 20260506182712 | 57 | 350 | 2.6 | 2.6 | 0.00 | 0.00 | 0.00 | 37 | 1019.8 |
| 20260506182209 | 58 | 56 | 0.0 | 0.9 | 0.00 | 0.00 | 0.00 | 33 | 1019.9 |
| 20260506181707 | 57 | 350 | 1.7 | 1.7 | 0.00 | 0.00 | 0.00 | 36 | 1020.2 |
| 20260506181205 | 58 | 343 | 4.3 | 4.3 | 0.00 | 0.00 | 0.00 | 36 | 1019.7 |
| 20260506180702 | 57 | 52 | 1.7 | 2.6 | 0.00 | 0.00 | 0.00 | 33 | 1020.0 |
| 20260506180157 | 58 | 316 | 1.7 | 1.7 | 0.00 | 0.00 | 0.00 | 33 | 1020.2 |
| 20260506175654 | 58 | 346 | 0.9 | 1.7 | 0.00 | 0.00 | 0.00 | 36 | 1020.4 |
| 20260506175150 | 57 | 284 | 2.6 | 5.2 | 0.00 | 0.00 | 0.00 | 37 | 1020.3 |
| 20260506174643 | 57 | 34 | 1.7 | 4.3 | 0.00 | 0.00 | 0.00 | 36 | 1020.3 |
| 20260506174139 | 57 | 295 | 7.0 | 7.8 | 0.00 | 0.00 | 0.00 | 32 | 1020.4 |
| 20260506173637 | 56 | 300 | 3.5 | 6.1 | 0.00 | 0.00 | 0.00 | 35 | 1020.4 |
| 20260506173133 | 56 | 307 | 2.6 | 4.3 | 0.00 | 0.00 | 0.00 | 34 | 1020.4 |
| 20260506172631 | 56 | 0 | 1.7 | 2.6 | 0.00 | 0.00 | 0.00 | 34 | 1020.2 |
| 20260506172121 | 56 | 0 | 3.5 | 4.3 | 0.00 | 0.00 | 0.00 | 35 | 1020.6 |
| 20260506171620 | 57 | 18 | 3.5 | 4.3 | 0.00 | 0.00 | 0.00 | 35 | 1020.3 |
| 20260506171117 | 57 | 356 | 4.3 | 5.2 | 0.00 | 0.00 | 0.00 | 33 | 1020.5 |
| 20260506170615 | 56 | 46 | 4.3 | 5.2 | 0.00 | 0.00 | 0.00 | 34 | 1020.4 |
| 20260506170111 | 55 | 45 | 2.6 | 5.2 | 0.00 | 0.00 | 0.00 | 35 | 1020.6 |
| 20260506165609 | 55 | 7 | 0.9 | 1.7 | 0.00 | 0.00 | 0.00 | 36 | 1020.7 |
| 20260506165105 | 55 | 40 | 3.5 | 5.2 | 0.00 | 0.00 | 0.00 | 33 | 1020.9 |
| 20260506164603 | 55 | 31 | 4.3 | 5.2 | 0.00 | 0.00 | 0.00 | 35 | 1020.8 |
| 20260506164100 | 55 | 352 | 3.5 | 4.3 | 0.00 | 0.00 | 0.00 | 35 | 1020.7 |
| 20260506163555 | 55 | 347 | 2.6 | 2.6 | 0.00 | 0.00 | 0.00 | 34 | 1020.6 |
| 20260506163051 | 55 | 44 | 1.7 | 2.6 | 0.00 | 0.00 | 0.00 | 37 | 1020.6 |
| 20260506162548 | 54 | 42 | 0.0 | 0.0 | 0.00 | 0.00 | 0.00 | 36 | 1020.7 |
| 20260506162045 | 55 | 43 | 1.7 | 1.7 | 0.00 | 0.00 | 0.00 | 36 | 1020.6 |
| 20260506161542 | 53 | 36 | 2.6 | 4.3 | 0.00 | 0.00 | 0.00 | 39 | 1020.6 |
| 20260506161039 | 53 | 12 | 2.6 | 2.6 | 0.00 | 0.00 | 0.00 | 38 | 1020.8 |
| 20260506160537 | 54 | 90 | 0.0 | 0.9 | 0.00 | 0.00 | 0.00 | 45 | 1020.6 |
| 20260506160034 | 53 | 352 | 4.3 | 6.1 | 0.00 | 0.00 | 0.00 | 39 | 1020.8 |
| 20260506155532 | 53 | 34 | 0.9 | 1.7 | 0.00 | 0.00 | 0.00 | 40 | 1020.6 |
| 20260506153703 | 53 | 341 | 2.6 | 2.6 | 0.00 | 0.00 | 0.00 | 40 | 1020.8 |
| 20260506153201 | 52 | 8 | 2.6 | 2.6 | 0.00 | 0.00 | 0.00 | 41 | 1020.5 |
| 20260506152657 | 52 | 41 | 0.9 | 0.9 | 0.00 | 0.00 | 0.00 | 43 | 1020.6 |
| 20260506152155 | 52 | 34 | 1.7 | 1.7 | 0.00 | 0.00 | 0.00 | 44 | 1020.6 |
| 20260506151654 | 52 | 35 | 0.9 | 1.7 | 0.00 | 0.00 | 0.00 | 43 | 1020.7 |
| 20260506151150 | 52 | 34 | 0.0 | 0.9 | 0.00 | 0.00 | 0.00 | 43 | 1020.5 |
| 20260506150647 | 52 | 52 | 0.9 | 0.9 | 0.00 | 0.00 | 0.00 | 39 | 1020.6 |
| 20260506150144 | 51 | 285 | 2.6 | 2.6 | 0.00 | 0.00 | 0.00 | 44 | 1020.5 |
| 20260506145641 | 51 | 355 | 0.9 | 1.7 | 0.00 | 0.00 | 0.00 | 43 | 1020.8 |
| 20260506145137 | 51 | 38 | 0.9 | 0.9 | 0.00 | 0.00 | 0.00 | 43 | 1020.5 |
| 20260506144635 | 50 | 6 | 0.9 | 0.9 | 0.00 | 0.00 | 0.00 | 42 | 1020.7 |
| 20260506144131 | 50 | 351 | 1.7 | 1.7 | 0.00 | 0.00 | 0.00 | 45 | 1020.6 |
| 20260506143629 | 51 | 335 | 1.7 | 2.6 | 0.00 | 0.00 | 0.00 | 47 | 1020.8 |
| 20260506143127 | 50 | 26 | 0.9 | 0.9 | 0.00 | 0.00 | 0.00 | 51 | 1020.6 |
| 20260506142625 | 49 | 326 | 1.7 | 1.7 | 0.00 | 0.00 | 0.00 | 48 | 1020.6 |
| 20260506142123 | 49 | 19 | 0.9 | 0.9 | 0.00 | 0.00 | 0.00 | 51 | 1020.6 |